createdAt,value
2018-09-14T00:00:48.963Z,99.90
2018-09-14T00:03:19.639Z,99.90
2018-09-14T00:05:50.150Z,99.90
2018-09-14T00:08:20.818Z,99.90
2018-09-14T00:10:51.372Z,99.90
2018-09-14T00:13:21.921Z,99.90
2018-09-14T00:15:52.452Z,99.90
2018-09-14T00:18:22.994Z,99.90
2018-09-14T00:20:53.469Z,99.90
2018-09-14T00:23:24.011Z,99.90
2018-09-14T00:25:54.376Z,99.90
2018-09-14T00:28:24.946Z,99.90
2018-09-14T00:30:55.584Z,99.90
2018-09-14T00:33:25.958Z,99.90
2018-09-14T00:35:56.524Z,99.90
2018-09-14T00:38:27.740Z,99.90
2018-09-14T00:40:58.337Z,99.90
2018-09-14T00:43:28.908Z,99.90
2018-09-14T00:45:59.392Z,99.90
2018-09-14T00:48:29.953Z,99.90
2018-09-14T00:51:00.552Z,99.90
2018-09-14T00:53:30.957Z,99.90
2018-09-14T00:56:01.473Z,99.90
2018-09-14T00:58:32.021Z,99.90
2018-09-14T01:01:02.645Z,99.90
2018-09-14T01:03:33.178Z,99.90
2018-09-14T01:06:03.802Z,99.90
2018-09-14T01:08:34.388Z,99.90
2018-09-14T01:11:05.911Z,99.90
2018-09-14T01:13:36.418Z,99.90
2018-09-14T01:16:07.404Z,99.90
2018-09-14T01:18:38.934Z,99.90
2018-09-14T01:21:09.622Z,99.90
2018-09-14T01:23:40.129Z,99.90
2018-09-14T01:26:10.642Z,99.90
2018-09-14T01:28:41.264Z,99.90
2018-09-14T01:31:11.845Z,99.90
2018-09-14T01:33:42.399Z,99.90
2018-09-14T01:36:13.286Z,99.90
2018-09-14T01:38:43.626Z,99.90
2018-09-14T01:41:14.184Z,99.90
2018-09-14T01:43:44.684Z,99.90
2018-09-14T01:46:15.099Z,99.90
2018-09-14T01:48:45.685Z,99.90
2018-09-14T01:51:16.195Z,99.90
2018-09-14T01:53:46.639Z,99.90
2018-09-14T01:56:17.247Z,99.90
2018-09-14T01:58:47.657Z,99.90
2018-09-14T02:01:18.263Z,99.90
2018-09-14T02:03:48.938Z,99.90
2018-09-14T02:06:19.663Z,99.90
2018-09-14T02:08:50.068Z,99.90
2018-09-14T02:11:20.614Z,99.90
2018-09-14T02:13:51.119Z,99.90
2018-09-14T02:16:21.636Z,99.90
2018-09-14T02:18:52.192Z,99.90
2018-09-14T02:21:22.691Z,99.90
2018-09-14T02:23:53.246Z,99.90
2018-09-14T02:26:23.729Z,99.90
2018-09-14T02:28:54.315Z,99.90
2018-09-14T02:31:24.768Z,99.90
2018-09-14T02:33:55.271Z,99.90
2018-09-14T02:36:25.712Z,99.90
2018-09-14T02:38:56.101Z,99.90
2018-09-14T02:41:26.494Z,99.90
2018-09-14T02:43:56.898Z,99.90
2018-09-14T02:46:27.427Z,99.90
2018-09-14T02:48:57.944Z,99.90
2018-09-14T02:51:28.693Z,99.90
2018-09-14T02:53:59.894Z,99.90
2018-09-14T02:56:30.324Z,99.90
2018-09-14T02:59:01.528Z,99.90
2018-09-14T03:01:31.955Z,99.90
2018-09-14T03:04:02.400Z,99.90
2018-09-14T03:06:34.066Z,99.90
2018-09-14T03:09:05.486Z,99.90
2018-09-14T03:11:36.019Z,99.90
2018-09-14T03:14:06.897Z,99.90
2018-09-14T03:16:37.425Z,99.90
2018-09-14T03:19:07.944Z,99.90
2018-09-14T03:21:38.590Z,99.90
2018-09-14T03:24:09.226Z,99.90
2018-09-14T03:26:40.125Z,99.90
2018-09-14T03:29:10.621Z,99.90
2018-09-14T03:31:41.125Z,99.90
2018-09-14T03:34:11.473Z,99.90
2018-09-14T03:36:42.144Z,99.90
2018-09-14T03:39:12.757Z,99.90
2018-09-14T03:41:43.205Z,99.90
2018-09-14T03:44:13.638Z,99.90
2018-09-14T03:46:44.256Z,99.90
2018-09-14T03:49:14.806Z,99.90
2018-09-14T03:51:45.391Z,99.90
2018-09-14T03:54:15.897Z,99.90
2018-09-14T03:56:46.485Z,99.90
2018-09-14T03:59:17.042Z,99.90
2018-09-14T04:01:47.600Z,99.90
2018-09-14T04:04:18.078Z,99.90
2018-09-14T04:06:48.558Z,99.90
2018-09-14T04:09:19.535Z,99.90
2018-09-14T04:11:50.015Z,99.90
2018-09-14T04:14:20.522Z,99.90
2018-09-14T04:16:51.129Z,99.90
2018-09-14T04:19:21.719Z,99.90
2018-09-14T04:21:52.255Z,99.90
2018-09-14T04:24:23.361Z,99.90
2018-09-14T04:26:53.701Z,99.90
2018-09-14T04:29:24.030Z,99.90
2018-09-14T04:31:54.699Z,99.90
2018-09-14T04:34:26.080Z,99.90
2018-09-14T04:36:56.644Z,99.90
2018-09-14T04:39:28.082Z,99.90
2018-09-14T04:41:58.633Z,99.90
2018-09-14T04:44:29.758Z,99.90
2018-09-14T04:47:00.226Z,99.90
2018-09-14T04:49:30.888Z,99.90
2018-09-14T04:52:01.549Z,99.90
2018-09-14T04:54:32.066Z,99.90
2018-09-14T04:57:02.601Z,99.90
2018-09-14T04:59:33.996Z,99.90
2018-09-14T05:02:04.570Z,99.90
2018-09-14T05:04:35.362Z,99.90
2018-09-14T05:07:05.991Z,99.90
2018-09-14T05:09:36.708Z,99.90
2018-09-14T05:12:07.690Z,99.90
2018-09-14T05:14:38.209Z,99.90
2018-09-14T05:17:08.744Z,99.90
2018-09-14T05:19:39.373Z,99.90
2018-09-14T05:22:09.905Z,99.90
2018-09-14T05:24:40.550Z,99.90
2018-09-14T05:27:11.494Z,99.90
2018-09-14T05:29:42.012Z,99.90
2018-09-14T05:32:12.583Z,99.90
2018-09-14T05:34:42.879Z,99.90
2018-09-14T05:37:13.360Z,99.90
2018-09-14T05:39:43.828Z,99.90
2018-09-14T05:42:14.170Z,99.90
2018-09-14T05:44:44.513Z,99.90
2018-09-14T05:47:15.019Z,99.90
2018-09-14T05:49:45.384Z,99.90
2018-09-14T05:52:15.923Z,99.90
2018-09-14T05:54:46.602Z,99.90
2018-09-14T05:57:17.203Z,99.90
2018-09-14T05:59:47.759Z,99.90
2018-09-14T06:02:18.810Z,99.90
2018-09-14T06:04:49.662Z,99.90
2018-09-14T06:07:20.327Z,99.90
2018-09-14T06:09:51.071Z,99.90
2018-09-14T06:12:21.553Z,99.90
2018-09-14T06:14:52.414Z,99.90
2018-09-14T06:17:24.144Z,99.90
2018-09-14T06:19:56.249Z,99.90
2018-09-14T06:22:27.705Z,99.90
2018-09-14T06:24:59.642Z,99.90
2018-09-14T06:27:30.322Z,99.90
2018-09-14T06:30:02.200Z,99.90
2018-09-14T06:32:32.893Z,99.90
2018-09-14T06:35:04.588Z,99.90
2018-09-14T06:37:35.796Z,99.90
2018-09-14T06:40:06.677Z,99.90
2018-09-14T06:42:37.343Z,99.90
2018-09-14T06:45:08.227Z,99.90
2018-09-14T06:47:39.225Z,99.90
2018-09-14T06:50:09.797Z,99.90
2018-09-14T06:52:40.667Z,99.90
2018-09-14T06:55:12.551Z,99.90
2018-09-14T06:57:44.067Z,99.90
2018-09-14T07:00:15.058Z,99.90
2018-09-14T07:02:47.875Z,99.90
2018-09-14T07:05:18.489Z,99.90
2018-09-14T07:07:49.138Z,99.90
2018-09-14T07:10:19.948Z,99.90
2018-09-14T07:12:50.683Z,99.90
2018-09-14T07:15:21.375Z,99.90
2018-09-14T07:17:52.164Z,99.90
2018-09-14T07:20:22.999Z,99.90
2018-09-14T07:22:54.312Z,99.90
2018-09-14T07:25:25.735Z,99.90
2018-09-14T07:27:56.653Z,99.90
2018-09-14T07:30:27.317Z,99.90
2018-09-14T07:32:58.574Z,99.90
2018-09-14T07:35:30.371Z,99.90
2018-09-14T07:38:01.100Z,99.90
2018-09-14T07:40:32.114Z,99.90
2018-09-14T07:43:02.766Z,99.90
2018-09-14T07:45:34.620Z,99.90
2018-09-14T07:48:05.430Z,99.90
2018-09-14T07:50:36.305Z,99.90
2018-09-14T07:53:08.029Z,99.90
2018-09-14T07:55:40.063Z,99.90
2018-09-14T07:58:10.829Z,99.90
2018-09-14T08:00:43.699Z,99.90
2018-09-14T08:03:14.830Z,99.90
2018-09-14T08:05:46.658Z,99.90
2018-09-14T08:08:18.832Z,99.90
2018-09-14T08:10:52.802Z,99.90
2018-09-14T08:13:24.177Z,99.90
2018-09-14T08:15:55.217Z,99.90
2018-09-14T08:18:27.398Z,99.90
2018-09-14T08:20:59.337Z,99.90
2018-09-14T08:23:30.291Z,99.90
2018-09-14T08:26:01.401Z,99.90
2018-09-14T08:28:32.803Z,99.90
2018-09-14T08:31:03.512Z,99.90
2018-09-14T08:33:34.294Z,99.90
2018-09-14T08:36:05.138Z,99.60
2018-09-14T08:38:37.543Z,99.10
2018-09-14T08:41:08.916Z,98.90
2018-09-14T08:43:39.543Z,98.70
2018-09-14T08:46:10.343Z,98.90
2018-09-14T08:48:41.481Z,98.00
2018-09-14T08:51:12.483Z,97.80
2018-09-14T08:53:44.882Z,97.40
2018-09-14T08:56:15.567Z,96.80
2018-09-14T08:58:47.520Z,97.40
2018-09-14T09:01:18.371Z,96.80
2018-09-14T09:03:49.336Z,96.00
2018-09-14T09:06:19.836Z,95.30
2018-09-14T09:08:50.479Z,95.50
2018-09-14T09:11:21.897Z,95.00
2018-09-14T09:13:53.077Z,94.30
2018-09-14T09:16:23.702Z,93.40
2018-09-14T09:18:56.559Z,94.20
2018-09-14T09:21:27.345Z,93.90
2018-09-14T09:23:58.723Z,93.40
2018-09-14T09:26:29.592Z,92.40
2018-09-14T09:29:00.163Z,91.70
2018-09-14T09:31:30.974Z,91.10
2018-09-14T09:34:01.652Z,91.00
2018-09-14T09:36:32.334Z,90.10
2018-09-14T09:39:03.577Z,89.50
2018-09-14T09:41:34.365Z,85.70
2018-09-14T09:44:05.125Z,84.40
2018-09-14T09:46:35.606Z,84.30
2018-09-14T09:49:06.214Z,82.70
2018-09-14T09:51:36.963Z,81.80
2018-09-14T09:54:07.501Z,80.70
2018-09-14T09:56:38.691Z,78.70
2018-09-14T09:59:09.295Z,76.20
2018-09-14T10:01:47.035Z,74.60
2018-09-14T10:04:23.333Z,74.20
2018-09-14T10:06:54.167Z,74.60
2018-09-14T10:09:24.865Z,73.40
2018-09-14T10:11:55.563Z,72.90
2018-09-14T10:14:26.199Z,74.20
2018-09-14T10:16:56.909Z,72.90
2018-09-14T10:19:27.438Z,72.30
2018-09-14T10:21:58.001Z,71.00
2018-09-14T10:24:28.491Z,70.90
2018-09-14T10:26:59.210Z,70.70
2018-09-14T10:29:30.199Z,69.70
2018-09-14T10:32:01.107Z,68.70
2018-09-14T10:34:31.634Z,68.00
2018-09-14T10:37:02.584Z,65.50
2018-09-14T10:39:33.255Z,65.40
2018-09-14T10:42:04.067Z,64.10
2018-09-14T10:44:34.800Z,62.30
2018-09-14T10:47:05.855Z,60.50
2018-09-14T10:49:37.414Z,63.30
2018-09-14T10:52:07.999Z,63.50
2018-09-14T10:54:39.151Z,61.30
2018-09-14T10:57:09.736Z,60.60
2018-09-14T10:59:40.375Z,59.40
2018-09-14T11:02:11.180Z,61.50
2018-09-14T11:04:41.812Z,59.00
2018-09-14T11:07:12.428Z,60.00
2018-09-14T11:09:43.686Z,60.00
2018-09-14T11:12:14.226Z,58.70
2018-09-14T11:14:45.628Z,57.30
2018-09-14T11:17:16.440Z,57.10
2018-09-14T11:19:47.006Z,56.30
2018-09-14T11:22:17.683Z,56.30
2018-09-14T11:24:48.619Z,56.30
2018-09-14T11:27:19.153Z,54.70
2018-09-14T11:29:51.268Z,54.00
2018-09-14T11:32:21.973Z,53.70
2018-09-14T11:34:52.901Z,55.00
2018-09-14T11:37:23.769Z,54.40
2018-09-14T11:39:55.068Z,53.00
2018-09-14T11:42:27.002Z,52.80
2018-09-14T11:44:57.832Z,52.70
2018-09-14T11:47:28.558Z,51.90
2018-09-14T11:49:59.123Z,51.90
2018-09-14T11:52:29.575Z,52.60
2018-09-14T11:55:00.312Z,53.70
2018-09-14T11:57:31.142Z,55.00
2018-09-14T12:00:01.849Z,56.00
2018-09-14T12:02:33.796Z,58.40
2018-09-14T12:05:04.901Z,60.10
2018-09-14T12:07:39.966Z,60.10
2018-09-14T12:10:11.780Z,59.60
2018-09-14T12:12:43.111Z,58.80
2018-09-14T12:15:13.802Z,57.80
2018-09-14T12:17:45.215Z,56.80
2018-09-14T12:20:16.012Z,55.90
2018-09-14T12:22:47.385Z,56.20
2018-09-14T12:25:18.294Z,55.00
2018-09-14T12:27:49.345Z,54.20
2018-09-14T12:30:20.553Z,51.90
2018-09-14T12:32:51.120Z,52.00
2018-09-14T12:35:22.488Z,51.30
2018-09-14T12:37:53.135Z,51.40
2018-09-14T12:40:24.185Z,52.40
2018-09-14T12:42:58.076Z,53.30
2018-09-14T12:45:37.181Z,54.40
2018-09-14T12:48:08.540Z,53.50
2018-09-14T12:50:39.697Z,53.30
2018-09-14T12:53:10.498Z,53.20
2018-09-14T12:55:44.063Z,52.30
2018-09-14T12:58:17.678Z,51.60
2018-09-14T13:00:53.918Z,52.30
2018-09-14T13:03:25.421Z,52.60
2018-09-14T13:05:56.358Z,51.70
2018-09-14T13:08:27.422Z,52.50
2018-09-14T13:10:58.164Z,53.40
2018-09-14T13:13:29.690Z,54.40
2018-09-14T13:16:00.596Z,55.70
2018-09-14T13:18:31.202Z,57.20
2018-09-14T13:21:01.792Z,58.70
2018-09-14T13:23:32.837Z,60.30
2018-09-14T13:26:04.147Z,61.40
2018-09-14T13:28:35.041Z,62.90
2018-09-14T13:31:07.429Z,64.10
2018-09-14T13:33:39.421Z,65.70
2018-09-14T13:36:10.573Z,68.60
2018-09-14T13:38:41.941Z,70.50
2018-09-14T13:41:13.297Z,71.40
2018-09-14T13:43:44.574Z,73.30
2018-09-14T13:46:15.815Z,73.90
2018-09-14T13:48:46.654Z,74.00
2018-09-14T13:51:18.438Z,74.40
2018-09-14T13:53:49.247Z,74.80
2018-09-14T13:56:20.506Z,74.00
2018-09-14T13:59:02.613Z,73.20
2018-09-14T14:01:36.374Z,73.40
2018-09-14T14:04:07.533Z,74.60
2018-09-14T14:06:39.534Z,73.90
2018-09-14T14:09:16.549Z,74.80
2018-09-14T14:11:47.434Z,73.90
2018-09-14T14:14:24.532Z,71.70
2018-09-14T14:17:06.047Z,71.60
2018-09-14T14:19:38.718Z,71.00
2018-09-14T14:22:14.434Z,71.60
2018-09-14T14:24:45.754Z,69.90
2018-09-14T14:27:16.675Z,69.60
2018-09-14T14:29:47.417Z,67.10
2018-09-14T14:32:19.328Z,67.10
2018-09-14T14:34:50.624Z,66.70
2018-09-14T14:37:22.005Z,66.10
2018-09-14T14:39:53.454Z,65.10
2018-09-14T14:42:24.979Z,62.30
2018-09-14T14:44:58.635Z,63.70
2018-09-14T14:47:29.411Z,64.60
2018-09-14T14:50:02.233Z,65.80
2018-09-14T14:52:34.878Z,65.00
2018-09-14T14:55:06.937Z,63.80
2018-09-14T14:57:37.855Z,61.50
2018-09-14T15:00:09.814Z,61.40
2018-09-14T15:02:41.024Z,61.80
2018-09-14T15:05:12.646Z,62.40
2018-09-14T15:07:44.488Z,61.20
2018-09-14T15:10:17.175Z,63.00
2018-09-14T15:12:50.538Z,63.00
2018-09-14T15:15:22.162Z,64.30
2018-09-14T15:17:52.939Z,63.90
2018-09-14T15:20:24.009Z,64.20
2018-09-14T15:22:54.806Z,65.70
2018-09-14T15:25:25.971Z,64.40
2018-09-14T15:27:57.524Z,63.20
2018-09-14T15:30:28.918Z,63.60
2018-09-14T15:32:59.616Z,64.90
2018-09-14T15:35:30.131Z,65.20
2018-09-14T15:38:00.829Z,65.00
2018-09-14T15:40:32.009Z,66.30
2018-09-14T15:43:03.297Z,69.00
2018-09-14T15:45:34.073Z,70.30
2018-09-14T15:48:04.825Z,70.00
2018-09-14T15:50:36.570Z,71.10
2018-09-14T15:53:08.034Z,69.40
2018-09-14T15:55:38.624Z,69.40
2018-09-14T15:58:10.745Z,69.20
2018-09-14T16:00:41.559Z,69.10
2018-09-14T16:03:12.476Z,69.10
2018-09-14T16:05:43.384Z,69.90
2018-09-14T16:08:14.771Z,70.90
2018-09-14T16:10:45.962Z,72.20
2018-09-14T16:13:16.854Z,73.70
2018-09-14T16:15:47.907Z,73.10
2018-09-14T16:18:18.957Z,72.60
2018-09-14T16:20:50.814Z,72.50
2018-09-14T16:23:22.274Z,73.20
2018-09-14T16:25:53.227Z,74.00
2018-09-14T16:28:24.602Z,73.70
2018-09-14T16:30:55.534Z,73.50
2018-09-14T16:33:26.881Z,73.30
2018-09-14T16:35:57.689Z,73.70
2018-09-14T16:38:28.418Z,72.40
2018-09-14T16:41:00.718Z,74.70
2018-09-14T16:43:33.878Z,72.90
2018-09-14T16:46:06.376Z,74.60
2018-09-14T16:48:37.088Z,76.50
2018-09-14T16:51:07.955Z,77.60
2018-09-14T16:53:40.329Z,77.90
2018-09-14T16:56:12.345Z,79.40
2018-09-14T16:58:43.824Z,80.10
2018-09-14T17:01:15.785Z,80.60
2018-09-14T17:03:46.930Z,81.20
2018-09-14T17:06:17.815Z,81.90
2018-09-14T17:08:48.709Z,82.00
2018-09-14T17:11:19.397Z,85.00
2018-09-14T17:13:50.066Z,86.50
2018-09-14T17:16:21.458Z,87.60
2018-09-14T17:18:52.457Z,87.60
2018-09-14T17:21:23.461Z,88.80
2018-09-14T17:23:54.196Z,89.80
2018-09-14T17:26:25.781Z,90.30
2018-09-14T17:29:06.216Z,90.90
2018-09-14T17:31:39.384Z,91.40
2018-09-14T17:34:12.399Z,91.80
2018-09-14T17:36:44.951Z,92.40
2018-09-14T17:39:17.734Z,92.90
2018-09-14T17:41:50.249Z,93.10
2018-09-14T17:44:21.487Z,93.20
2018-09-14T17:46:53.044Z,93.60
2018-09-14T17:49:24.031Z,94.00
2018-09-14T17:51:55.217Z,94.70
2018-09-14T17:54:27.366Z,95.70
2018-09-14T17:56:58.288Z,95.80
2018-09-14T17:59:29.701Z,96.30
2018-09-14T18:02:02.085Z,96.90
2018-09-14T18:04:33.177Z,97.20
2018-09-14T18:07:04.975Z,97.60
2018-09-14T18:09:36.326Z,97.90
2018-09-14T18:12:08.019Z,98.40
2018-09-14T18:14:39.499Z,98.80
2018-09-14T18:17:10.769Z,99.30
2018-09-14T18:19:42.037Z,99.60
2018-09-14T18:22:12.772Z,99.90
2018-09-14T18:24:43.927Z,99.90
2018-09-14T18:27:15.137Z,99.90
2018-09-14T18:29:46.711Z,99.90
2018-09-14T18:32:17.596Z,99.90
2018-09-14T18:34:49.160Z,99.90
2018-09-14T18:37:19.798Z,99.90
2018-09-14T18:39:50.981Z,99.90
2018-09-14T18:42:21.805Z,99.90
2018-09-14T18:44:53.466Z,99.90
2018-09-14T18:47:24.893Z,99.90
2018-09-14T18:49:56.728Z,99.90
2018-09-14T18:52:27.569Z,99.90
2018-09-14T18:54:58.753Z,99.90
2018-09-14T18:57:29.532Z,99.90
2018-09-14T19:00:00.987Z,99.90
2018-09-14T19:02:32.429Z,99.90
2018-09-14T19:05:03.532Z,99.90
2018-09-14T19:07:35.504Z,99.90
2018-09-14T19:10:07.262Z,99.90
2018-09-14T19:12:39.618Z,99.90
2018-09-14T19:15:10.749Z,99.90
2018-09-14T19:17:41.936Z,99.90
2018-09-14T19:20:13.610Z,99.90
2018-09-14T19:22:45.067Z,99.90
2018-09-14T19:25:16.388Z,99.90
2018-09-14T19:27:47.679Z,99.90
2018-09-14T19:30:21.369Z,99.90
2018-09-14T19:32:53.202Z,99.90
2018-09-14T19:35:31.355Z,99.90
2018-09-14T19:38:04.486Z,99.90
2018-09-14T19:40:36.056Z,99.90
2018-09-14T19:43:07.773Z,99.90
2018-09-14T19:45:40.457Z,99.90
2018-09-14T19:48:11.867Z,99.90
2018-09-14T19:50:42.828Z,99.90
2018-09-14T19:53:13.952Z,99.90
2018-09-14T19:55:47.546Z,99.90
2018-09-14T19:58:20.744Z,99.90
2018-09-14T20:00:53.003Z,99.90
2018-09-14T20:03:24.036Z,99.90
2018-09-14T20:05:55.475Z,99.90
2018-09-14T20:08:26.242Z,99.90
2018-09-14T20:10:57.779Z,99.90
2018-09-14T20:13:28.577Z,99.90
2018-09-14T20:16:01.517Z,99.90
2018-09-14T20:18:33.781Z,99.90
2018-09-14T20:21:07.436Z,99.90
2018-09-14T20:23:40.221Z,99.90
2018-09-14T20:26:13.066Z,99.90
2018-09-14T20:28:47.697Z,99.90
2018-09-14T20:31:20.591Z,99.90
2018-09-14T20:33:55.681Z,99.90
2018-09-14T20:36:30.166Z,99.90
2018-09-14T20:39:06.184Z,99.90
2018-09-14T20:41:38.200Z,99.90
2018-09-14T20:44:12.480Z,99.90
2018-09-14T20:46:43.490Z,99.90
2018-09-14T20:49:15.497Z,99.90
2018-09-14T20:51:48.874Z,99.90
2018-09-14T20:54:20.177Z,99.90
2018-09-14T20:56:52.014Z,99.90
2018-09-14T20:59:23.634Z,99.90
2018-09-14T21:01:54.741Z,99.90
2018-09-14T21:04:25.330Z,99.90
2018-09-14T21:06:56.776Z,99.90
2018-09-14T21:09:27.908Z,99.90
2018-09-14T21:11:58.624Z,99.90
2018-09-14T21:14:29.665Z,99.90
2018-09-14T21:17:01.154Z,99.90
2018-09-14T21:19:32.379Z,99.90
2018-09-14T21:22:03.010Z,99.90
2018-09-14T21:24:33.855Z,99.90
2018-09-14T21:27:04.582Z,99.90
2018-09-14T21:29:36.096Z,99.90
2018-09-14T21:32:11.594Z,99.90
2018-09-14T21:34:42.419Z,99.90
2018-09-14T21:37:13.601Z,99.90
2018-09-14T21:39:44.692Z,99.90
2018-09-14T21:42:15.824Z,99.90
2018-09-14T21:44:48.317Z,99.90
2018-09-14T21:47:20.551Z,99.90
2018-09-14T21:49:51.936Z,99.90
2018-09-14T21:52:23.890Z,99.90
2018-09-14T21:54:55.387Z,99.90
2018-09-14T21:57:26.100Z,99.90
2018-09-14T21:59:57.489Z,99.90
2018-09-14T22:02:28.430Z,99.90
2018-09-14T22:04:59.516Z,99.90
2018-09-14T22:07:31.276Z,99.90
2018-09-14T22:10:02.108Z,99.90
2018-09-14T22:12:33.448Z,99.90
2018-09-14T22:15:04.130Z,99.90
2018-09-14T22:17:36.639Z,99.90
2018-09-14T22:20:07.907Z,99.90
2018-09-14T22:22:38.650Z,99.90
2018-09-14T22:25:09.621Z,99.90
2018-09-14T22:27:40.272Z,99.90
2018-09-14T22:30:11.091Z,99.90
2018-09-14T22:32:41.738Z,99.90
2018-09-14T22:35:12.512Z,99.90
2018-09-14T22:37:43.593Z,99.90
2018-09-14T22:40:14.274Z,99.90
2018-09-14T22:42:44.985Z,99.90
2018-09-14T22:45:15.602Z,99.90
2018-09-14T22:47:46.591Z,99.90
2018-09-14T22:50:17.392Z,99.90
2018-09-14T22:52:48.058Z,99.90
2018-09-14T22:55:19.011Z,99.90
2018-09-14T22:57:49.951Z,99.90
2018-09-14T23:00:25.303Z,99.90
2018-09-14T23:02:56.112Z,99.90
2018-09-14T23:05:26.642Z,99.90
2018-09-14T23:07:57.238Z,99.90
2018-09-14T23:10:27.826Z,99.90
2018-09-14T23:12:58.449Z,99.90
2018-09-14T23:15:29.381Z,99.90
2018-09-14T23:17:59.846Z,99.90
2018-09-14T23:20:30.895Z,99.90
2018-09-14T23:23:01.255Z,99.90
2018-09-14T23:25:31.821Z,99.90
2018-09-14T23:28:02.571Z,99.90
2018-09-14T23:30:33.176Z,99.90
2018-09-14T23:33:03.834Z,99.90
2018-09-14T23:35:34.411Z,99.90
2018-09-14T23:38:05.050Z,99.90
2018-09-14T23:40:35.775Z,99.90
2018-09-14T23:43:06.424Z,99.90
2018-09-14T23:45:36.984Z,99.90
2018-09-14T23:48:07.774Z,99.90
2018-09-14T23:50:38.273Z,99.90
2018-09-14T23:53:08.889Z,99.90
2018-09-14T23:55:39.478Z,99.90
2018-09-14T23:58:10.162Z,99.90
